sensor_id;sensor_type;location;lat;lon;timestamp;P1;durP1;ratioP1;P2;durP2;ratioP2
12663;SDS011;6396;58.490;15.528;2022-08-04T00:02:31;6.93;;;4.43;;
12663;SDS011;6396;58.490;15.528;2022-08-04T00:05:09;6.53;;;4.20;;
12663;SDS011;6396;58.490;15.528;2022-08-04T00:07:43;6.27;;;4.40;;
12663;SDS011;6396;58.490;15.528;2022-08-04T00:10:21;4.87;;;3.60;;
12663;SDS011;6396;58.490;15.528;2022-08-04T00:12:50;8.77;;;4.03;;
12663;SDS011;6396;58.490;15.528;2022-08-04T00:15:20;8.43;;;4.23;;
12663;SDS011;6396;58.490;15.528;2022-08-04T00:17:51;5.90;;;3.70;;
12663;SDS011;6396;58.490;15.528;2022-08-04T00:20:20;4.57;;;3.90;;
12663;SDS011;6396;58.490;15.528;2022-08-04T00:22:49;5.47;;;4.23;;
12663;SDS011;6396;58.490;15.528;2022-08-04T00:25:17;6.13;;;4.40;;
12663;SDS011;6396;58.490;15.528;2022-08-04T00:27:45;5.90;;;3.93;;
12663;SDS011;6396;58.490;15.528;2022-08-04T00:30:13;5.70;;;3.87;;
12663;SDS011;6396;58.490;15.528;2022-08-04T00:32:40;6.80;;;4.03;;
12663;SDS011;6396;58.490;15.528;2022-08-04T00:35:07;8.17;;;4.03;;
12663;SDS011;6396;58.490;15.528;2022-08-04T00:37:36;5.67;;;3.90;;
12663;SDS011;6396;58.490;15.528;2022-08-04T00:40:05;7.33;;;4.40;;
12663;SDS011;6396;58.490;15.528;2022-08-04T00:42:41;5.43;;;3.70;;
12663;SDS011;6396;58.490;15.528;2022-08-04T00:45:31;5.90;;;4.20;;
12663;SDS011;6396;58.490;15.528;2022-08-04T00:48:12;5.57;;;4.03;;
12663;SDS011;6396;58.490;15.528;2022-08-04T00:50:52;6.80;;;3.80;;
12663;SDS011;6396;58.490;15.528;2022-08-04T00:53:33;6.87;;;4.40;;
12663;SDS011;6396;58.490;15.528;2022-08-04T00:59:17;6.13;;;4.00;;
12663;SDS011;6396;58.490;15.528;2022-08-04T01:02:13;5.87;;;3.50;;
12663;SDS011;6396;58.490;15.528;2022-08-04T01:04:49;6.53;;;3.90;;
12663;SDS011;6396;58.490;15.528;2022-08-04T01:07:46;8.03;;;4.30;;
12663;SDS011;6396;58.490;15.528;2022-08-04T01:10:29;6.37;;;3.90;;
12663;SDS011;6396;58.490;15.528;2022-08-04T01:13:07;6.77;;;4.07;;
12663;SDS011;6396;58.490;15.528;2022-08-04T01:15:51;8.60;;;3.87;;
12663;SDS011;6396;58.490;15.528;2022-08-04T01:18:26;6.73;;;3.80;;
12663;SDS011;6396;58.490;15.528;2022-08-04T01:21:03;4.50;;;4.00;;
12663;SDS011;6396;58.490;15.528;2022-08-04T01:23:55;5.83;;;4.40;;
12663;SDS011;6396;58.490;15.528;2022-08-04T01:26:49;8.40;;;3.73;;
12663;SDS011;6396;58.490;15.528;2022-08-04T01:29:22;6.07;;;4.20;;
12663;SDS011;6396;58.490;15.528;2022-08-04T01:32:01;7.00;;;4.47;;
12663;SDS011;6396;58.490;15.528;2022-08-04T01:34:30;5.80;;;3.83;;
12663;SDS011;6396;58.490;15.528;2022-08-04T01:37:12;5.30;;;4.13;;
12663;SDS011;6396;58.490;15.528;2022-08-04T01:39:50;7.87;;;4.03;;
12663;SDS011;6396;58.490;15.528;2022-08-04T01:42:25;6.80;;;3.97;;
12663;SDS011;6396;58.490;15.528;2022-08-04T01:44:57;6.67;;;4.40;;
12663;SDS011;6396;58.490;15.528;2022-08-04T01:47:27;6.83;;;4.10;;
12663;SDS011;6396;58.490;15.528;2022-08-04T01:49:58;4.57;;;3.87;;
12663;SDS011;6396;58.490;15.528;2022-08-04T01:52:30;5.90;;;4.00;;
12663;SDS011;6396;58.490;15.528;2022-08-04T01:54:59;9.57;;;4.27;;
12663;SDS011;6396;58.490;15.528;2022-08-04T01:57:28;11.37;;;4.60;;
12663;SDS011;6396;58.490;15.528;2022-08-04T01:59:55;8.30;;;4.03;;
12663;SDS011;6396;58.490;15.528;2022-08-04T02:02:25;8.10;;;4.30;;
12663;SDS011;6396;58.490;15.528;2022-08-04T02:04:52;8.20;;;3.97;;
12663;SDS011;6396;58.490;15.528;2022-08-04T02:07:24;6.07;;;4.03;;
12663;SDS011;6396;58.490;15.528;2022-08-04T02:10:02;6.77;;;3.73;;
12663;SDS011;6396;58.490;15.528;2022-08-04T02:12:46;7.40;;;3.93;;
12663;SDS011;6396;58.490;15.528;2022-08-04T02:15:25;6.67;;;4.00;;
12663;SDS011;6396;58.490;15.528;2022-08-04T02:17:59;7.70;;;3.77;;
12663;SDS011;6396;58.490;15.528;2022-08-04T02:20:29;6.23;;;3.97;;
12663;SDS011;6396;58.490;15.528;2022-08-04T02:23:00;5.80;;;4.07;;
12663;SDS011;6396;58.490;15.528;2022-08-04T02:25:36;6.53;;;4.03;;
12663;SDS011;6396;58.490;15.528;2022-08-04T02:28:15;6.27;;;4.77;;
12663;SDS011;6396;58.490;15.528;2022-08-04T02:31:02;6.97;;;4.60;;
12663;SDS011;6396;58.490;15.528;2022-08-04T02:33:39;8.23;;;4.87;;
12663;SDS011;6396;58.490;15.528;2022-08-04T02:36:09;7.83;;;4.43;;
12663;SDS011;6396;58.490;15.528;2022-08-04T02:38:46;5.57;;;4.00;;
12663;SDS011;6396;58.490;15.528;2022-08-04T02:41:21;6.57;;;4.20;;
12663;SDS011;6396;58.490;15.528;2022-08-04T02:43:50;4.60;;;4.00;;
12663;SDS011;6396;58.490;15.528;2022-08-04T02:46:21;4.67;;;4.03;;
12663;SDS011;6396;58.490;15.528;2022-08-04T02:48:50;6.17;;;4.00;;
12663;SDS011;6396;58.490;15.528;2022-08-04T02:51:19;5.80;;;4.13;;
12663;SDS011;6396;58.490;15.528;2022-08-04T02:53:48;7.53;;;4.67;;
12663;SDS011;6396;58.490;15.528;2022-08-04T02:56:18;5.90;;;4.53;;
12663;SDS011;6396;58.490;15.528;2022-08-04T02:58:48;8.33;;;5.23;;
12663;SDS011;6396;58.490;15.528;2022-08-04T03:01:18;5.80;;;4.83;;
12663;SDS011;6396;58.490;15.528;2022-08-04T03:03:50;7.63;;;5.43;;
12663;SDS011;6396;58.490;15.528;2022-08-04T03:06:51;8.23;;;4.87;;
12663;SDS011;6396;58.490;15.528;2022-08-04T03:09:38;7.53;;;5.13;;
12663;SDS011;6396;58.490;15.528;2022-08-04T03:16:00;8.17;;;4.80;;
12663;SDS011;6396;58.490;15.528;2022-08-04T03:18:52;7.17;;;5.23;;
12663;SDS011;6396;58.490;15.528;2022-08-04T03:28:10;8.80;;;5.63;;
12663;SDS011;6396;58.490;15.528;2022-08-04T03:31:05;9.60;;;5.70;;
12663;SDS011;6396;58.490;15.528;2022-08-04T03:33:44;9.63;;;5.97;;
12663;SDS011;6396;58.490;15.528;2022-08-04T03:36:37;8.60;;;5.23;;
12663;SDS011;6396;58.490;15.528;2022-08-04T03:39:28;8.40;;;5.80;;
12663;SDS011;6396;58.490;15.528;2022-08-04T03:42:30;9.17;;;6.20;;
12663;SDS011;6396;58.490;15.528;2022-08-04T03:45:16;8.60;;;5.77;;
12663;SDS011;6396;58.490;15.528;2022-08-04T03:48:08;8.73;;;5.63;;
12663;SDS011;6396;58.490;15.528;2022-08-04T03:50:58;8.27;;;5.23;;
12663;SDS011;6396;58.490;15.528;2022-08-04T03:53:56;7.40;;;5.40;;
12663;SDS011;6396;58.490;15.528;2022-08-04T03:56:59;8.20;;;5.40;;
12663;SDS011;6396;58.490;15.528;2022-08-04T03:59:48;7.97;;;5.60;;
12663;SDS011;6396;58.490;15.528;2022-08-04T04:02:40;8.90;;;6.17;;
12663;SDS011;6396;58.490;15.528;2022-08-04T04:05:43;8.20;;;6.27;;
12663;SDS011;6396;58.490;15.528;2022-08-04T04:08:34;9.57;;;6.03;;
12663;SDS011;6396;58.490;15.528;2022-08-04T04:11:22;8.13;;;5.90;;
12663;SDS011;6396;58.490;15.528;2022-08-04T04:14:11;7.53;;;5.70;;
12663;SDS011;6396;58.490;15.528;2022-08-04T04:16:48;8.60;;;5.17;;
12663;SDS011;6396;58.490;15.528;2022-08-04T04:22:24;6.03;;;4.07;;
12663;SDS011;6396;58.490;15.528;2022-08-04T04:25:02;5.03;;;4.43;;
12663;SDS011;6396;58.490;15.528;2022-08-04T04:27:38;6.60;;;4.53;;
12663;SDS011;6396;58.490;15.528;2022-08-04T04:30:15;9.63;;;4.73;;
12663;SDS011;6396;58.490;15.528;2022-08-04T04:35:45;6.03;;;4.07;;
12663;SDS011;6396;58.490;15.528;2022-08-04T04:38:29;6.00;;;4.53;;
12663;SDS011;6396;58.490;15.528;2022-08-04T04:41:14;9.07;;;4.40;;
12663;SDS011;6396;58.490;15.528;2022-08-04T04:47:13;7.47;;;4.20;;
12663;SDS011;6396;58.490;15.528;2022-08-04T04:49:50;6.53;;;4.47;;
12663;SDS011;6396;58.490;15.528;2022-08-04T04:52:23;8.93;;;4.73;;
12663;SDS011;6396;58.490;15.528;2022-08-04T04:54:59;5.87;;;3.77;;
12663;SDS011;6396;58.490;15.528;2022-08-04T04:57:35;6.30;;;3.80;;
12663;SDS011;6396;58.490;15.528;2022-08-04T05:00:03;6.90;;;3.87;;
12663;SDS011;6396;58.490;15.528;2022-08-04T05:05:32;7.57;;;4.27;;
12663;SDS011;6396;58.490;15.528;2022-08-04T05:11:13;7.77;;;4.47;;
12663;SDS011;6396;58.490;15.528;2022-08-04T05:14:07;6.93;;;4.10;;
12663;SDS011;6396;58.490;15.528;2022-08-04T05:16:38;6.57;;;3.97;;
12663;SDS011;6396;58.490;15.528;2022-08-04T05:19:13;10.87;;;4.40;;
12663;SDS011;6396;58.490;15.528;2022-08-04T05:21:50;6.93;;;4.37;;
12663;SDS011;6396;58.490;15.528;2022-08-04T05:24:26;7.07;;;4.30;;
12663;SDS011;6396;58.490;15.528;2022-08-04T05:26:59;6.67;;;4.40;;
12663;SDS011;6396;58.490;15.528;2022-08-04T05:29:30;5.10;;;4.27;;
12663;SDS011;6396;58.490;15.528;2022-08-04T05:32:01;8.20;;;4.60;;
12663;SDS011;6396;58.490;15.528;2022-08-04T05:34:32;6.93;;;4.20;;
12663;SDS011;6396;58.490;15.528;2022-08-04T05:37:06;6.50;;;3.80;;
12663;SDS011;6396;58.490;15.528;2022-08-04T05:39:36;6.23;;;4.00;;
12663;SDS011;6396;58.490;15.528;2022-08-04T05:42:10;6.13;;;4.13;;
12663;SDS011;6396;58.490;15.528;2022-08-04T05:44:38;8.77;;;3.63;;
12663;SDS011;6396;58.490;15.528;2022-08-04T05:47:07;6.07;;;4.10;;
12663;SDS011;6396;58.490;15.528;2022-08-04T05:49:37;5.07;;;3.63;;
12663;SDS011;6396;58.490;15.528;2022-08-04T05:52:05;9.07;;;3.77;;
12663;SDS011;6396;58.490;15.528;2022-08-04T05:54:34;6.73;;;3.57;;
12663;SDS011;6396;58.490;15.528;2022-08-04T05:57:03;6.63;;;4.17;;
12663;SDS011;6396;58.490;15.528;2022-08-04T05:59:33;5.07;;;3.90;;
12663;SDS011;6396;58.490;15.528;2022-08-04T06:02:03;4.83;;;3.57;;
12663;SDS011;6396;58.490;15.528;2022-08-04T06:04:31;4.20;;;3.77;;
12663;SDS011;6396;58.490;15.528;2022-08-04T06:07:00;9.37;;;4.77;;
12663;SDS011;6396;58.490;15.528;2022-08-04T06:09:27;5.77;;;3.87;;
12663;SDS011;6396;58.490;15.528;2022-08-04T06:11:55;4.87;;;4.00;;
12663;SDS011;6396;58.490;15.528;2022-08-04T06:14:26;7.43;;;3.80;;
12663;SDS011;6396;58.490;15.528;2022-08-04T06:16:59;6.27;;;3.70;;
12663;SDS011;6396;58.490;15.528;2022-08-04T06:19:30;5.10;;;3.57;;
12663;SDS011;6396;58.490;15.528;2022-08-04T06:22:01;5.43;;;3.60;;
12663;SDS011;6396;58.490;15.528;2022-08-04T06:24:30;5.17;;;3.77;;
12663;SDS011;6396;58.490;15.528;2022-08-04T06:27:01;6.80;;;3.23;;
12663;SDS011;6396;58.490;15.528;2022-08-04T06:29:30;3.87;;;3.37;;
12663;SDS011;6396;58.490;15.528;2022-08-04T06:32:02;5.13;;;3.20;;
12663;SDS011;6396;58.490;15.528;2022-08-04T06:34:37;4.77;;;3.33;;
12663;SDS011;6396;58.490;15.528;2022-08-04T06:37:05;5.93;;;3.10;;
12663;SDS011;6396;58.490;15.528;2022-08-04T06:39:33;3.33;;;2.97;;
12663;SDS011;6396;58.490;15.528;2022-08-04T06:42:15;5.10;;;3.03;;
12663;SDS011;6396;58.490;15.528;2022-08-04T06:44:45;3.93;;;3.03;;
12663;SDS011;6396;58.490;15.528;2022-08-04T06:47:16;3.87;;;2.63;;
12663;SDS011;6396;58.490;15.528;2022-08-04T06:49:45;3.37;;;3.07;;
12663;SDS011;6396;58.490;15.528;2022-08-04T06:52:13;4.80;;;2.77;;
12663;SDS011;6396;58.490;15.528;2022-08-04T06:54:43;5.07;;;2.73;;
12663;SDS011;6396;58.490;15.528;2022-08-04T06:57:10;6.37;;;3.03;;
12663;SDS011;6396;58.490;15.528;2022-08-04T06:59:42;5.17;;;2.87;;
12663;SDS011;6396;58.490;15.528;2022-08-04T07:02:12;4.47;;;2.97;;
12663;SDS011;6396;58.490;15.528;2022-08-04T07:04:43;4.30;;;3.00;;
12663;SDS011;6396;58.490;15.528;2022-08-04T07:07:12;4.90;;;2.87;;
12663;SDS011;6396;58.490;15.528;2022-08-04T07:09:39;6.53;;;3.17;;
12663;SDS011;6396;58.490;15.528;2022-08-04T07:12:06;5.67;;;2.93;;
12663;SDS011;6396;58.490;15.528;2022-08-04T07:14:35;6.23;;;3.40;;
12663;SDS011;6396;58.490;15.528;2022-08-04T07:17:02;5.80;;;2.90;;
12663;SDS011;6396;58.490;15.528;2022-08-04T07:19:30;3.27;;;2.63;;
12663;SDS011;6396;58.490;15.528;2022-08-04T07:21:59;6.10;;;2.50;;
12663;SDS011;6396;58.490;15.528;2022-08-04T07:24:30;3.13;;;2.50;;
12663;SDS011;6396;58.490;15.528;2022-08-04T07:26:58;7.93;;;2.47;;
12663;SDS011;6396;58.490;15.528;2022-08-04T07:29:25;5.50;;;2.60;;
12663;SDS011;6396;58.490;15.528;2022-08-04T07:31:52;3.53;;;2.33;;
12663;SDS011;6396;58.490;15.528;2022-08-04T07:34:20;4.33;;;2.60;;
12663;SDS011;6396;58.490;15.528;2022-08-04T07:36:49;4.37;;;2.57;;
12663;SDS011;6396;58.490;15.528;2022-08-04T07:39:20;4.37;;;2.40;;
12663;SDS011;6396;58.490;15.528;2022-08-04T07:41:47;3.13;;;2.27;;
12663;SDS011;6396;58.490;15.528;2022-08-04T07:44:16;4.37;;;2.70;;
12663;SDS011;6396;58.490;15.528;2022-08-04T07:46:44;4.83;;;2.37;;
12663;SDS011;6396;58.490;15.528;2022-08-04T07:49:11;3.47;;;2.30;;
12663;SDS011;6396;58.490;15.528;2022-08-04T07:51:38;4.77;;;2.80;;
12663;SDS011;6396;58.490;15.528;2022-08-04T07:54:06;3.03;;;2.00;;
12663;SDS011;6396;58.490;15.528;2022-08-04T07:56:37;2.05;;;1.80;;
12663;SDS011;6396;58.490;15.528;2022-08-04T07:59:20;3.45;;;2.25;;
12663;SDS011;6396;58.490;15.528;2022-08-04T08:01:47;3.28;;;2.22;;
12663;SDS011;6396;58.490;15.528;2022-08-04T08:04:14;4.32;;;1.90;;
12663;SDS011;6396;58.490;15.528;2022-08-04T08:06:42;3.03;;;2.00;;
12663;SDS011;6396;58.490;15.528;2022-08-04T08:09:12;2.65;;;1.98;;
12663;SDS011;6396;58.490;15.528;2022-08-04T08:11:42;2.03;;;1.90;;
12663;SDS011;6396;58.490;15.528;2022-08-04T08:14:11;2.88;;;2.30;;
12663;SDS011;6396;58.490;15.528;2022-08-04T08:16:38;3.20;;;2.20;;
12663;SDS011;6396;58.490;15.528;2022-08-04T08:19:05;2.63;;;1.92;;
12663;SDS011;6396;58.490;15.528;2022-08-04T08:21:32;4.55;;;2.10;;
12663;SDS011;6396;58.490;15.528;2022-08-04T08:24:00;2.60;;;2.30;;
12663;SDS011;6396;58.490;15.528;2022-08-04T08:26:27;2.38;;;1.90;;
12663;SDS011;6396;58.490;15.528;2022-08-04T08:28:56;4.05;;;2.35;;
12663;SDS011;6396;58.490;15.528;2022-08-04T08:31:24;3.90;;;2.28;;
12663;SDS011;6396;58.490;15.528;2022-08-04T08:33:51;3.03;;;1.73;;
12663;SDS011;6396;58.490;15.528;2022-08-04T08:36:21;1.95;;;1.80;;
12663;SDS011;6396;58.490;15.528;2022-08-04T08:38:58;3.42;;;2.10;;
12663;SDS011;6396;58.490;15.528;2022-08-04T08:47:45;2.13;;;1.92;;
12663;SDS011;6396;58.490;15.528;2022-08-04T08:50:36;2.30;;;2.00;;
12663;SDS011;6396;58.490;15.528;2022-08-04T08:53:21;3.00;;;2.00;;
12663;SDS011;6396;58.490;15.528;2022-08-04T08:59:02;2.13;;;1.92;;
12663;SDS011;6396;58.490;15.528;2022-08-04T09:01:53;2.70;;;1.70;;
12663;SDS011;6396;58.490;15.528;2022-08-04T09:04:48;2.70;;;1.73;;
12663;SDS011;6396;58.490;15.528;2022-08-04T09:07:36;3.72;;;1.80;;
12663;SDS011;6396;58.490;15.528;2022-08-04T09:10:11;2.40;;;1.40;;
12663;SDS011;6396;58.490;15.528;2022-08-04T09:12:45;3.05;;;2.03;;
12663;SDS011;6396;58.490;15.528;2022-08-04T09:15:22;2.08;;;1.75;;
12663;SDS011;6396;58.490;15.528;2022-08-04T09:17:58;2.25;;;1.75;;
12663;SDS011;6396;58.490;15.528;2022-08-04T09:20:33;3.08;;;1.95;;
12663;SDS011;6396;58.490;15.528;2022-08-04T09:23:12;2.35;;;1.77;;
12663;SDS011;6396;58.490;15.528;2022-08-04T09:25:45;2.75;;;1.92;;
12663;SDS011;6396;58.490;15.528;2022-08-04T09:28:21;3.30;;;2.00;;
12663;SDS011;6396;58.490;15.528;2022-08-04T09:30:52;4.38;;;1.90;;
12663;SDS011;6396;58.490;15.528;2022-08-04T09:33:27;3.53;;;2.05;;
12663;SDS011;6396;58.490;15.528;2022-08-04T09:36:12;5.78;;;2.67;;
12663;SDS011;6396;58.490;15.528;2022-08-04T09:38:50;2.20;;;2.00;;
12663;SDS011;6396;58.490;15.528;2022-08-04T09:41:34;2.05;;;1.85;;
12663;SDS011;6396;58.490;15.528;2022-08-04T09:44:12;1.85;;;1.63;;
12663;SDS011;6396;58.490;15.528;2022-08-04T09:46:48;3.40;;;1.83;;
12663;SDS011;6396;58.490;15.528;2022-08-04T09:49:26;3.60;;;1.80;;
12663;SDS011;6396;58.490;15.528;2022-08-04T09:52:00;2.00;;;1.83;;
12663;SDS011;6396;58.490;15.528;2022-08-04T09:57:54;2.30;;;2.00;;
12663;SDS011;6396;58.490;15.528;2022-08-04T10:07:18;2.90;;;2.25;;
12663;SDS011;6396;58.490;15.528;2022-08-04T10:10:02;2.70;;;1.77;;
12663;SDS011;6396;58.490;15.528;2022-08-04T10:12:40;2.00;;;1.80;;
12663;SDS011;6396;58.490;15.528;2022-08-04T10:15:19;2.27;;;1.80;;
12663;SDS011;6396;58.490;15.528;2022-08-04T10:18:01;3.73;;;2.10;;
12663;SDS011;6396;58.490;15.528;2022-08-04T10:20:41;3.20;;;1.90;;
12663;SDS011;6396;58.490;15.528;2022-08-04T10:23:51;2.50;;;2.10;;
12663;SDS011;6396;58.490;15.528;2022-08-04T10:26:34;2.53;;;2.03;;
12663;SDS011;6396;58.490;15.528;2022-08-04T10:29:11;2.90;;;1.77;;
12663;SDS011;6396;58.490;15.528;2022-08-04T10:31:43;2.70;;;2.10;;
12663;SDS011;6396;58.490;15.528;2022-08-04T10:34:16;2.03;;;1.83;;
12663;SDS011;6396;58.490;15.528;2022-08-04T10:36:48;1.70;;;1.60;;
12663;SDS011;6396;58.490;15.528;2022-08-04T10:39:24;3.40;;;1.87;;
12663;SDS011;6396;58.490;15.528;2022-08-04T10:42:01;2.40;;;1.93;;
12663;SDS011;6396;58.490;15.528;2022-08-04T10:44:39;2.37;;;1.73;;
12663;SDS011;6396;58.490;15.528;2022-08-04T10:47:17;2.53;;;1.70;;
12663;SDS011;6396;58.490;15.528;2022-08-04T10:49:49;2.87;;;1.83;;
12663;SDS011;6396;58.490;15.528;2022-08-04T10:52:22;2.97;;;1.67;;
12663;SDS011;6396;58.490;15.528;2022-08-04T10:55:02;3.57;;;1.73;;
12663;SDS011;6396;58.490;15.528;2022-08-04T10:57:34;2.70;;;2.17;;
12663;SDS011;6396;58.490;15.528;2022-08-04T11:00:09;2.00;;;1.80;;
12663;SDS011;6396;58.490;15.528;2022-08-04T11:02:42;1.87;;;1.77;;
12663;SDS011;6396;58.490;15.528;2022-08-04T11:05:19;1.87;;;1.60;;
12663;SDS011;6396;58.490;15.528;2022-08-04T11:07:52;2.20;;;2.00;;
12663;SDS011;6396;58.490;15.528;2022-08-04T11:10:32;1.60;;;1.50;;
12663;SDS011;6396;58.490;15.528;2022-08-04T11:13:04;1.83;;;1.70;;
12663;SDS011;6396;58.490;15.528;2022-08-04T11:15:37;2.20;;;1.80;;
12663;SDS011;6396;58.490;15.528;2022-08-04T11:18:09;1.83;;;1.70;;
12663;SDS011;6396;58.490;15.528;2022-08-04T11:20:41;1.73;;;1.60;;
12663;SDS011;6396;58.490;15.528;2022-08-04T11:23:14;1.43;;;1.33;;
12663;SDS011;6396;58.490;15.528;2022-08-04T11:25:49;1.73;;;1.50;;
12663;SDS011;6396;58.490;15.528;2022-08-04T11:28:24;2.23;;;1.50;;
12663;SDS011;6396;58.490;15.528;2022-08-04T11:31:02;1.60;;;1.50;;
12663;SDS011;6396;58.490;15.528;2022-08-04T11:33:35;1.63;;;1.52;;
12663;SDS011;6396;58.490;15.528;2022-08-04T11:36:07;1.80;;;1.52;;
12663;SDS011;6396;58.490;15.528;2022-08-04T11:38:42;1.50;;;1.40;;
12663;SDS011;6396;58.490;15.528;2022-08-04T11:41:18;3.08;;;1.65;;
12663;SDS011;6396;58.490;15.528;2022-08-04T11:44:02;1.45;;;1.35;;
12663;SDS011;6396;58.490;15.528;2022-08-04T11:46:33;3.20;;;1.50;;
12663;SDS011;6396;58.490;15.528;2022-08-04T11:49:06;1.83;;;1.55;;
12663;SDS011;6396;58.490;15.528;2022-08-04T11:51:35;2.00;;;1.50;;
12663;SDS011;6396;58.490;15.528;2022-08-04T11:54:04;2.75;;;1.50;;
12663;SDS011;6396;58.490;15.528;2022-08-04T11:56:33;2.67;;;1.73;;
12663;SDS011;6396;58.490;15.528;2022-08-04T11:59:00;1.77;;;1.50;;
12663;SDS011;6396;58.490;15.528;2022-08-04T12:01:33;1.60;;;1.50;;
12663;SDS011;6396;58.490;15.528;2022-08-04T12:04:13;1.67;;;1.58;;
12663;SDS011;6396;58.490;15.528;2022-08-04T12:06:44;1.50;;;1.40;;
12663;SDS011;6396;58.490;15.528;2022-08-04T12:09:20;2.15;;;1.50;;
12663;SDS011;6396;58.490;15.528;2022-08-04T12:11:59;1.67;;;1.30;;
12663;SDS011;6396;58.490;15.528;2022-08-04T12:14:38;1.60;;;1.50;;
12663;SDS011;6396;58.490;15.528;2022-08-04T12:17:12;2.30;;;1.67;;
12663;SDS011;6396;58.490;15.528;2022-08-04T12:19:48;2.25;;;1.60;;
12663;SDS011;6396;58.490;15.528;2022-08-04T12:22:18;3.22;;;1.55;;
12663;SDS011;6396;58.490;15.528;2022-08-04T12:24:49;1.85;;;1.50;;
12663;SDS011;6396;58.490;15.528;2022-08-04T12:27:23;2.38;;;1.45;;
12663;SDS011;6396;58.490;15.528;2022-08-04T12:29:53;1.83;;;1.40;;
12663;SDS011;6396;58.490;15.528;2022-08-04T12:32:24;1.73;;;1.47;;
12663;SDS011;6396;58.490;15.528;2022-08-04T12:35:12;4.32;;;1.67;;
12663;SDS011;6396;58.490;15.528;2022-08-04T12:37:46;1.83;;;1.73;;
12663;SDS011;6396;58.490;15.528;2022-08-04T12:40:17;2.22;;;1.65;;
12663;SDS011;6396;58.490;15.528;2022-08-04T12:42:52;2.55;;;1.83;;
12663;SDS011;6396;58.490;15.528;2022-08-04T12:45:24;2.42;;;1.75;;
12663;SDS011;6396;58.490;15.528;2022-08-04T12:47:53;1.88;;;1.38;;
12663;SDS011;6396;58.490;15.528;2022-08-04T12:50:24;1.77;;;1.63;;
12663;SDS011;6396;58.490;15.528;2022-08-04T12:52:53;3.13;;;1.60;;
12663;SDS011;6396;58.490;15.528;2022-08-04T12:55:23;3.27;;;1.80;;
12663;SDS011;6396;58.490;15.528;2022-08-04T12:57:54;2.23;;;1.80;;
12663;SDS011;6396;58.490;15.528;2022-08-04T13:00:26;2.47;;;1.83;;
12663;SDS011;6396;58.490;15.528;2022-08-04T13:02:57;2.97;;;1.83;;
12663;SDS011;6396;58.490;15.528;2022-08-04T13:05:31;3.50;;;1.80;;
12663;SDS011;6396;58.490;15.528;2022-08-04T13:07:59;5.43;;;2.10;;
12663;SDS011;6396;58.490;15.528;2022-08-04T13:10:28;3.50;;;2.03;;
12663;SDS011;6396;58.490;15.528;2022-08-04T13:13:05;4.10;;;1.90;;
12663;SDS011;6396;58.490;15.528;2022-08-04T13:15:40;3.67;;;2.10;;
12663;SDS011;6396;58.490;15.528;2022-08-04T13:18:20;5.63;;;1.97;;
12663;SDS011;6396;58.490;15.528;2022-08-04T13:20:49;4.63;;;2.37;;
12663;SDS011;6396;58.490;15.528;2022-08-04T13:23:17;5.80;;;2.53;;
12663;SDS011;6396;58.490;15.528;2022-08-04T13:25:45;2.92;;;2.28;;
12663;SDS011;6396;58.490;15.528;2022-08-04T13:28:16;3.60;;;2.13;;
12663;SDS011;6396;58.490;15.528;2022-08-04T13:30:47;3.10;;;2.38;;
12663;SDS011;6396;58.490;15.528;2022-08-04T13:33:18;4.53;;;2.30;;
12663;SDS011;6396;58.490;15.528;2022-08-04T13:35:46;4.23;;;2.40;;
12663;SDS011;6396;58.490;15.528;2022-08-04T13:38:15;5.82;;;2.80;;
12663;SDS011;6396;58.490;15.528;2022-08-04T13:40:44;5.83;;;2.37;;
12663;SDS011;6396;58.490;15.528;2022-08-04T13:43:12;7.20;;;2.83;;
12663;SDS011;6396;58.490;15.528;2022-08-04T13:45:50;4.35;;;2.15;;
12663;SDS011;6396;58.490;15.528;2022-08-04T13:48:35;5.53;;;2.53;;
12663;SDS011;6396;58.490;15.528;2022-08-04T13:51:05;4.25;;;2.42;;
12663;SDS011;6396;58.490;15.528;2022-08-04T13:53:35;4.47;;;2.28;;
12663;SDS011;6396;58.490;15.528;2022-08-04T13:56:04;6.32;;;2.88;;
12663;SDS011;6396;58.490;15.528;2022-08-04T13:58:40;5.03;;;2.95;;
12663;SDS011;6396;58.490;15.528;2022-08-04T14:01:12;5.70;;;2.80;;
12663;SDS011;6396;58.490;15.528;2022-08-04T14:03:44;5.45;;;2.67;;
12663;SDS011;6396;58.490;15.528;2022-08-04T14:06:19;4.93;;;2.55;;
12663;SDS011;6396;58.490;15.528;2022-08-04T14:08:49;6.15;;;2.95;;
12663;SDS011;6396;58.490;15.528;2022-08-04T14:11:19;4.38;;;2.60;;
12663;SDS011;6396;58.490;15.528;2022-08-04T14:13:51;5.40;;;2.80;;
12663;SDS011;6396;58.490;15.528;2022-08-04T14:16:18;5.45;;;3.08;;
12663;SDS011;6396;58.490;15.528;2022-08-04T14:18:56;6.78;;;3.00;;
12663;SDS011;6396;58.490;15.528;2022-08-04T14:21:52;9.05;;;2.80;;
12663;SDS011;6396;58.490;15.528;2022-08-04T14:24:26;5.30;;;2.83;;
12663;SDS011;6396;58.490;15.528;2022-08-04T14:26:57;5.95;;;3.28;;
12663;SDS011;6396;58.490;15.528;2022-08-04T14:29:40;5.03;;;2.50;;
12663;SDS011;6396;58.490;15.528;2022-08-04T14:35:34;7.90;;;2.80;;
12663;SDS011;6396;58.490;15.528;2022-08-04T14:38:24;6.45;;;3.08;;
12663;SDS011;6396;58.490;15.528;2022-08-04T14:41:07;5.65;;;3.20;;
12663;SDS011;6396;58.490;15.528;2022-08-04T14:43:45;5.75;;;3.22;;
12663;SDS011;6396;58.490;15.528;2022-08-04T14:46:15;9.90;;;3.20;;
12663;SDS011;6396;58.490;15.528;2022-08-04T14:48:59;4.68;;;3.15;;
12663;SDS011;6396;58.490;15.528;2022-08-04T14:51:41;4.97;;;3.22;;
12663;SDS011;6396;58.490;15.528;2022-08-04T14:54:28;7.10;;;3.00;;
12663;SDS011;6396;58.490;15.528;2022-08-04T14:56:57;5.75;;;2.80;;
12663;SDS011;6396;58.490;15.528;2022-08-04T14:59:33;6.78;;;2.97;;
12663;SDS011;6396;58.490;15.528;2022-08-04T15:02:07;5.65;;;2.67;;
12663;SDS011;6396;58.490;15.528;2022-08-04T15:04:35;4.93;;;3.03;;
12663;SDS011;6396;58.490;15.528;2022-08-04T15:07:04;5.32;;;2.85;;
12663;SDS011;6396;58.490;15.528;2022-08-04T15:09:31;9.57;;;3.10;;
12663;SDS011;6396;58.490;15.528;2022-08-04T15:11:59;6.60;;;4.07;;
12663;SDS011;6396;58.490;15.528;2022-08-04T15:14:55;5.63;;;3.10;;
12663;SDS011;6396;58.490;15.528;2022-08-04T15:17:24;9.27;;;3.33;;
12663;SDS011;6396;58.490;15.528;2022-08-04T15:19:51;6.47;;;2.92;;
12663;SDS011;6396;58.490;15.528;2022-08-04T15:22:19;4.57;;;3.03;;
12663;SDS011;6396;58.490;15.528;2022-08-04T15:24:47;5.13;;;3.17;;
12663;SDS011;6396;58.490;15.528;2022-08-04T15:27:13;6.07;;;3.58;;
12663;SDS011;6396;58.490;15.528;2022-08-04T15:29:43;5.70;;;3.72;;
12663;SDS011;6396;58.490;15.528;2022-08-04T15:32:14;7.20;;;3.30;;
12663;SDS011;6396;58.490;15.528;2022-08-04T15:34:44;8.57;;;3.58;;
12663;SDS011;6396;58.490;15.528;2022-08-04T15:37:13;5.55;;;3.15;;
12663;SDS011;6396;58.490;15.528;2022-08-04T15:39:44;5.68;;;3.47;;
12663;SDS011;6396;58.490;15.528;2022-08-04T15:42:15;7.63;;;2.80;;
12663;SDS011;6396;58.490;15.528;2022-08-04T15:45:16;4.85;;;3.15;;
12663;SDS011;6396;58.490;15.528;2022-08-04T15:51:03;6.20;;;3.38;;
12663;SDS011;6396;58.490;15.528;2022-08-04T15:56:47;3.90;;;2.70;;
12663;SDS011;6396;58.490;15.528;2022-08-04T15:59:15;4.75;;;2.60;;
12663;SDS011;6396;58.490;15.528;2022-08-04T16:01:42;6.35;;;2.85;;
12663;SDS011;6396;58.490;15.528;2022-08-04T16:04:19;7.22;;;3.38;;
12663;SDS011;6396;58.490;15.528;2022-08-04T16:06:49;6.07;;;3.22;;
12663;SDS011;6396;58.490;15.528;2022-08-04T16:09:29;6.43;;;3.30;;
12663;SDS011;6396;58.490;15.528;2022-08-04T16:11:56;5.95;;;3.08;;
12663;SDS011;6396;58.490;15.528;2022-08-04T16:14:29;4.68;;;2.60;;
12663;SDS011;6396;58.490;15.528;2022-08-04T16:17:12;3.50;;;2.72;;
12663;SDS011;6396;58.490;15.528;2022-08-04T16:19:44;9.93;;;3.63;;
12663;SDS011;6396;58.490;15.528;2022-08-04T16:25:04;4.10;;;2.90;;
12663;SDS011;6396;58.490;15.528;2022-08-04T16:27:37;5.72;;;3.10;;
12663;SDS011;6396;58.490;15.528;2022-08-04T16:30:06;5.03;;;3.20;;
12663;SDS011;6396;58.490;15.528;2022-08-04T16:32:38;7.25;;;3.65;;
12663;SDS011;6396;58.490;15.528;2022-08-04T16:35:17;8.20;;;3.65;;